sensor_id;sensor_type;location;lat;lon;timestamp;P1;durP1;ratioP1;P2;durP2;ratioP2
8419;SDS011;4247;48.550;8.822;2024-01-30T00:00:18;5.40;;;2.77;;
8419;SDS011;4247;48.550;8.822;2024-01-30T00:02:46;2.80;;;2.50;;
8419;SDS011;4247;48.550;8.822;2024-01-30T00:05:14;5.67;;;3.30;;
8419;SDS011;4247;48.550;8.822;2024-01-30T00:07:41;3.13;;;2.80;;
8419;SDS011;4247;48.550;8.822;2024-01-30T00:10:07;2.20;;;2.00;;
8419;SDS011;4247;48.550;8.822;2024-01-30T00:12:34;2.53;;;1.73;;
8419;SDS011;4247;48.550;8.822;2024-01-30T00:15:01;3.10;;;2.27;;
8419;SDS011;4247;48.550;8.822;2024-01-30T00:17:29;2.37;;;2.17;;
8419;SDS011;4247;48.550;8.822;2024-01-30T00:19:56;2.40;;;2.20;;
8419;SDS011;4247;48.550;8.822;2024-01-30T00:22:24;4.00;;;2.07;;
8419;SDS011;4247;48.550;8.822;2024-01-30T00:24:50;2.20;;;2.00;;
8419;SDS011;4247;48.550;8.822;2024-01-30T00:27:17;3.93;;;1.87;;
8419;SDS011;4247;48.550;8.822;2024-01-30T00:29:44;2.27;;;1.97;;
8419;SDS011;4247;48.550;8.822;2024-01-30T00:32:10;5.43;;;2.30;;
8419;SDS011;4247;48.550;8.822;2024-01-30T00:34:37;2.63;;;2.13;;
8419;SDS011;4247;48.550;8.822;2024-01-30T00:37:04;2.40;;;1.90;;
8419;SDS011;4247;48.550;8.822;2024-01-30T00:39:32;4.23;;;2.47;;
8419;SDS011;4247;48.550;8.822;2024-01-30T00:41:58;6.27;;;2.80;;
8419;SDS011;4247;48.550;8.822;2024-01-30T00:44:25;3.53;;;2.07;;
8419;SDS011;4247;48.550;8.822;2024-01-30T00:46:52;3.67;;;2.03;;
8419;SDS011;4247;48.550;8.822;2024-01-30T00:49:18;1.67;;;1.57;;
8419;SDS011;4247;48.550;8.822;2024-01-30T00:51:45;5.00;;;2.13;;
8419;SDS011;4247;48.550;8.822;2024-01-30T00:54:12;2.87;;;2.00;;
8419;SDS011;4247;48.550;8.822;2024-01-30T00:56:40;3.90;;;2.30;;
8419;SDS011;4247;48.550;8.822;2024-01-30T00:59:07;2.63;;;2.23;;
8419;SDS011;4247;48.550;8.822;2024-01-30T01:01:33;2.93;;;1.90;;
8419;SDS011;4247;48.550;8.822;2024-01-30T01:04:00;2.20;;;2.00;;
8419;SDS011;4247;48.550;8.822;2024-01-30T01:06:27;2.10;;;1.90;;
8419;SDS011;4247;48.550;8.822;2024-01-30T01:08:53;3.67;;;2.60;;
8419;SDS011;4247;48.550;8.822;2024-01-30T01:11:20;2.93;;;1.80;;
8419;SDS011;4247;48.550;8.822;2024-01-30T01:13:48;1.90;;;1.80;;
8419;SDS011;4247;48.550;8.822;2024-01-30T01:16:15;2.23;;;2.03;;
8419;SDS011;4247;48.550;8.822;2024-01-30T01:18:42;8.37;;;2.83;;
8419;SDS011;4247;48.550;8.822;2024-01-30T01:21:09;5.40;;;2.07;;
8419;SDS011;4247;48.550;8.822;2024-01-30T01:23:35;3.97;;;2.67;;
8419;SDS011;4247;48.550;8.822;2024-01-30T01:26:02;2.80;;;1.77;;
8419;SDS011;4247;48.550;8.822;2024-01-30T01:28:29;3.73;;;2.17;;
8419;SDS011;4247;48.550;8.822;2024-01-30T01:30:57;6.77;;;2.10;;
8419;SDS011;4247;48.550;8.822;2024-01-30T01:33:30;6.50;;;3.23;;
8419;SDS011;4247;48.550;8.822;2024-01-30T01:35:57;6.33;;;3.23;;
8419;SDS011;4247;48.550;8.822;2024-01-30T01:38:23;6.73;;;3.30;;
8419;SDS011;4247;48.550;8.822;2024-01-30T01:40:50;4.07;;;2.43;;
8419;SDS011;4247;48.550;8.822;2024-01-30T01:43:17;3.00;;;1.67;;
8419;SDS011;4247;48.550;8.822;2024-01-30T01:45:43;4.77;;;2.53;;
8419;SDS011;4247;48.550;8.822;2024-01-30T01:48:11;6.27;;;2.33;;
8419;SDS011;4247;48.550;8.822;2024-01-30T01:50:38;7.53;;;2.40;;
8419;SDS011;4247;48.550;8.822;2024-01-30T01:53:05;3.27;;;2.10;;
8419;SDS011;4247;48.550;8.822;2024-01-30T01:55:33;2.33;;;1.57;;
8419;SDS011;4247;48.550;8.822;2024-01-30T01:58:01;2.57;;;1.87;;
8419;SDS011;4247;48.550;8.822;2024-01-30T02:00:28;2.30;;;1.90;;
8419;SDS011;4247;48.550;8.822;2024-01-30T02:02:56;1.73;;;1.50;;
8419;SDS011;4247;48.550;8.822;2024-01-30T02:05:24;1.93;;;1.77;;
8419;SDS011;4247;48.550;8.822;2024-01-30T02:07:52;5.67;;;1.67;;
8419;SDS011;4247;48.550;8.822;2024-01-30T02:10:19;2.10;;;1.70;;
8419;SDS011;4247;48.550;8.822;2024-01-30T02:12:46;2.83;;;1.83;;
8419;SDS011;4247;48.550;8.822;2024-01-30T02:15:14;1.83;;;1.70;;
8419;SDS011;4247;48.550;8.822;2024-01-30T02:17:41;3.43;;;1.50;;
8419;SDS011;4247;48.550;8.822;2024-01-30T02:20:08;3.50;;;1.63;;
8419;SDS011;4247;48.550;8.822;2024-01-30T02:22:36;3.10;;;1.70;;
8419;SDS011;4247;48.550;8.822;2024-01-30T02:25:04;2.40;;;1.70;;
8419;SDS011;4247;48.550;8.822;2024-01-30T02:27:31;1.30;;;1.20;;
8419;SDS011;4247;48.550;8.822;2024-01-30T02:29:58;1.40;;;1.30;;
8419;SDS011;4247;48.550;8.822;2024-01-30T02:32:25;1.83;;;1.73;;
8419;SDS011;4247;48.550;8.822;2024-01-30T02:34:53;4.27;;;2.00;;
8419;SDS011;4247;48.550;8.822;2024-01-30T02:37:19;2.17;;;1.50;;
8419;SDS011;4247;48.550;8.822;2024-01-30T02:39:47;3.90;;;1.73;;
8419;SDS011;4247;48.550;8.822;2024-01-30T02:42:14;1.73;;;1.40;;
8419;SDS011;4247;48.550;8.822;2024-01-30T02:44:41;2.30;;;1.83;;
8419;SDS011;4247;48.550;8.822;2024-01-30T02:47:08;2.27;;;1.60;;
8419;SDS011;4247;48.550;8.822;2024-01-30T02:49:34;2.63;;;2.07;;
8419;SDS011;4247;48.550;8.822;2024-01-30T02:52:01;3.00;;;1.77;;
8419;SDS011;4247;48.550;8.822;2024-01-30T02:54:28;3.17;;;1.93;;
8419;SDS011;4247;48.550;8.822;2024-01-30T02:56:57;5.70;;;2.27;;
8419;SDS011;4247;48.550;8.822;2024-01-30T02:59:23;2.70;;;1.90;;
8419;SDS011;4247;48.550;8.822;2024-01-30T03:01:50;3.53;;;1.70;;
8419;SDS011;4247;48.550;8.822;2024-01-30T03:04:17;1.87;;;1.77;;
8419;SDS011;4247;48.550;8.822;2024-01-30T03:06:44;3.87;;;2.10;;
8419;SDS011;4247;48.550;8.822;2024-01-30T03:09:12;1.83;;;1.67;;
8419;SDS011;4247;48.550;8.822;2024-01-30T03:11:38;2.27;;;1.90;;
8419;SDS011;4247;48.550;8.822;2024-01-30T03:14:06;4.50;;;2.57;;
8419;SDS011;4247;48.550;8.822;2024-01-30T03:16:36;3.47;;;2.47;;
8419;SDS011;4247;48.550;8.822;2024-01-30T03:19:02;1.70;;;1.60;;
8419;SDS011;4247;48.550;8.822;2024-01-30T03:21:30;2.10;;;1.50;;
8419;SDS011;4247;48.550;8.822;2024-01-30T03:23:56;3.77;;;1.50;;
8419;SDS011;4247;48.550;8.822;2024-01-30T03:26:24;1.63;;;1.53;;
8419;SDS011;4247;48.550;8.822;2024-01-30T03:28:51;1.57;;;1.43;;
8419;SDS011;4247;48.550;8.822;2024-01-30T03:31:19;2.20;;;1.53;;
8419;SDS011;4247;48.550;8.822;2024-01-30T03:33:46;2.70;;;1.37;;
8419;SDS011;4247;48.550;8.822;2024-01-30T03:36:12;1.60;;;1.47;;
8419;SDS011;4247;48.550;8.822;2024-01-30T03:38:41;1.80;;;1.40;;
8419;SDS011;4247;48.550;8.822;2024-01-30T03:41:07;1.50;;;1.23;;
8419;SDS011;4247;48.550;8.822;2024-01-30T03:43:34;3.27;;;1.47;;
8419;SDS011;4247;48.550;8.822;2024-01-30T03:46:01;1.17;;;1.07;;
8419;SDS011;4247;48.550;8.822;2024-01-30T03:48:29;2.70;;;1.20;;
8419;SDS011;4247;48.550;8.822;2024-01-30T03:50:56;1.50;;;1.40;;
8419;SDS011;4247;48.550;8.822;2024-01-30T03:53:23;1.40;;;1.10;;
8419;SDS011;4247;48.550;8.822;2024-01-30T03:55:49;2.03;;;1.57;;
8419;SDS011;4247;48.550;8.822;2024-01-30T03:58:16;2.50;;;1.53;;
8419;SDS011;4247;48.550;8.822;2024-01-30T04:00:43;3.63;;;1.77;;
8419;SDS011;4247;48.550;8.822;2024-01-30T04:03:09;1.80;;;1.53;;
8419;SDS011;4247;48.550;8.822;2024-01-30T04:05:37;3.27;;;1.67;;
8419;SDS011;4247;48.550;8.822;2024-01-30T04:08:04;1.80;;;1.57;;
8419;SDS011;4247;48.550;8.822;2024-01-30T04:10:31;2.43;;;1.77;;
8419;SDS011;4247;48.550;8.822;2024-01-30T04:12:58;1.40;;;1.20;;
8419;SDS011;4247;48.550;8.822;2024-01-30T04:15:25;1.93;;;1.23;;
8419;SDS011;4247;48.550;8.822;2024-01-30T04:17:53;2.17;;;1.60;;
8419;SDS011;4247;48.550;8.822;2024-01-30T04:20:19;2.30;;;1.63;;
8419;SDS011;4247;48.550;8.822;2024-01-30T04:22:47;2.20;;;1.80;;
8419;SDS011;4247;48.550;8.822;2024-01-30T04:25:14;2.50;;;1.60;;
8419;SDS011;4247;48.550;8.822;2024-01-30T04:27:41;3.40;;;1.70;;
8419;SDS011;4247;48.550;8.822;2024-01-30T04:30:08;4.10;;;1.73;;
8419;SDS011;4247;48.550;8.822;2024-01-30T04:32:36;2.37;;;1.80;;
8419;SDS011;4247;48.550;8.822;2024-01-30T04:35:03;2.73;;;1.67;;
8419;SDS011;4247;48.550;8.822;2024-01-30T04:37:30;1.87;;;1.37;;
8419;SDS011;4247;48.550;8.822;2024-01-30T04:39:58;2.20;;;1.67;;
8419;SDS011;4247;48.550;8.822;2024-01-30T04:42:25;1.63;;;1.53;;
8419;SDS011;4247;48.550;8.822;2024-01-30T04:44:51;21.50;;;7.33;;
8419;SDS011;4247;48.550;8.822;2024-01-30T04:47:18;7.00;;;3.53;;
8419;SDS011;4247;48.550;8.822;2024-01-30T04:49:45;6.07;;;2.70;;
8419;SDS011;4247;48.550;8.822;2024-01-30T04:52:11;4.53;;;2.17;;
8419;SDS011;4247;48.550;8.822;2024-01-30T04:54:38;4.20;;;2.57;;
8419;SDS011;4247;48.550;8.822;2024-01-30T04:57:06;2.20;;;1.77;;
8419;SDS011;4247;48.550;8.822;2024-01-30T04:59:36;2.23;;;1.83;;
8419;SDS011;4247;48.550;8.822;2024-01-30T05:02:03;1.60;;;1.50;;
8419;SDS011;4247;48.550;8.822;2024-01-30T05:04:29;3.70;;;1.60;;
8419;SDS011;4247;48.550;8.822;2024-01-30T05:06:56;2.17;;;1.67;;
8419;SDS011;4247;48.550;8.822;2024-01-30T05:09:22;3.70;;;1.40;;
8419;SDS011;4247;48.550;8.822;2024-01-30T05:11:49;1.83;;;1.10;;
8419;SDS011;4247;48.550;8.822;2024-01-30T05:14:17;2.43;;;1.43;;
8419;SDS011;4247;48.550;8.822;2024-01-30T05:16:44;1.80;;;1.70;;
8419;SDS011;4247;48.550;8.822;2024-01-30T05:19:12;2.03;;;1.30;;
8419;SDS011;4247;48.550;8.822;2024-01-30T05:21:39;1.30;;;0.90;;
8419;SDS011;4247;48.550;8.822;2024-01-30T05:24:05;2.03;;;1.10;;
8419;SDS011;4247;48.550;8.822;2024-01-30T05:26:34;0.87;;;0.87;;
8419;SDS011;4247;48.550;8.822;2024-01-30T05:29:01;2.67;;;1.20;;
8419;SDS011;4247;48.550;8.822;2024-01-30T05:31:29;1.63;;;1.10;;
8419;SDS011;4247;48.550;8.822;2024-01-30T05:33:56;1.33;;;1.23;;
8419;SDS011;4247;48.550;8.822;2024-01-30T05:36:23;3.37;;;1.63;;
8419;SDS011;4247;48.550;8.822;2024-01-30T05:38:49;1.53;;;1.43;;
8419;SDS011;4247;48.550;8.822;2024-01-30T05:41:16;4.73;;;1.47;;
8419;SDS011;4247;48.550;8.822;2024-01-30T05:43:43;1.97;;;1.30;;
8419;SDS011;4247;48.550;8.822;2024-01-30T05:46:09;3.10;;;1.63;;
8419;SDS011;4247;48.550;8.822;2024-01-30T05:48:37;2.10;;;1.40;;
8419;SDS011;4247;48.550;8.822;2024-01-30T05:51:04;1.93;;;1.40;;
8419;SDS011;4247;48.550;8.822;2024-01-30T05:53:32;3.20;;;1.30;;
8419;SDS011;4247;48.550;8.822;2024-01-30T05:55:59;1.80;;;1.20;;
8419;SDS011;4247;48.550;8.822;2024-01-30T05:58:27;1.60;;;1.33;;
8419;SDS011;4247;48.550;8.822;2024-01-30T06:00:54;4.13;;;1.80;;
8419;SDS011;4247;48.550;8.822;2024-01-30T06:03:20;3.73;;;2.33;;
8419;SDS011;4247;48.550;8.822;2024-01-30T06:05:48;4.57;;;2.47;;
8419;SDS011;4247;48.550;8.822;2024-01-30T06:08:15;5.90;;;2.00;;
8419;SDS011;4247;48.550;8.822;2024-01-30T06:10:42;4.40;;;2.07;;
8419;SDS011;4247;48.550;8.822;2024-01-30T06:13:08;2.97;;;1.63;;
8419;SDS011;4247;48.550;8.822;2024-01-30T06:15:35;2.53;;;2.33;;
8419;SDS011;4247;48.550;8.822;2024-01-30T06:18:02;3.00;;;2.00;;
8419;SDS011;4247;48.550;8.822;2024-01-30T06:20:29;1.40;;;1.27;;
8419;SDS011;4247;48.550;8.822;2024-01-30T06:22:57;1.33;;;1.23;;
8419;SDS011;4247;48.550;8.822;2024-01-30T06:25:24;2.00;;;1.40;;
8419;SDS011;4247;48.550;8.822;2024-01-30T06:27:50;2.07;;;1.30;;
8419;SDS011;4247;48.550;8.822;2024-01-30T06:30:17;1.43;;;1.33;;
8419;SDS011;4247;48.550;8.822;2024-01-30T06:32:44;3.37;;;2.00;;
8419;SDS011;4247;48.550;8.822;2024-01-30T06:35:11;3.70;;;1.87;;
8419;SDS011;4247;48.550;8.822;2024-01-30T06:37:37;3.67;;;1.73;;
8419;SDS011;4247;48.550;8.822;2024-01-30T06:40:06;2.33;;;1.60;;
8419;SDS011;4247;48.550;8.822;2024-01-30T06:42:33;5.80;;;1.73;;
8419;SDS011;4247;48.550;8.822;2024-01-30T06:45:00;2.23;;;2.03;;
8419;SDS011;4247;48.550;8.822;2024-01-30T06:47:27;3.63;;;2.03;;
8419;SDS011;4247;48.550;8.822;2024-01-30T06:49:56;2.80;;;2.10;;
8419;SDS011;4247;48.550;8.822;2024-01-30T06:52:22;7.43;;;2.60;;
8419;SDS011;4247;48.550;8.822;2024-01-30T06:54:49;6.27;;;3.10;;
8419;SDS011;4247;48.550;8.822;2024-01-30T06:57:17;4.90;;;2.27;;
8419;SDS011;4247;48.550;8.822;2024-01-30T06:59:44;4.93;;;3.13;;
8419;SDS011;4247;48.550;8.822;2024-01-30T07:02:10;6.43;;;3.20;;
8419;SDS011;4247;48.550;8.822;2024-01-30T07:04:37;4.90;;;3.73;;
8419;SDS011;4247;48.550;8.822;2024-01-30T07:07:04;8.37;;;3.70;;
8419;SDS011;4247;48.550;8.822;2024-01-30T07:09:36;4.93;;;2.90;;
8419;SDS011;4247;48.550;8.822;2024-01-30T07:12:03;5.07;;;4.40;;
8419;SDS011;4247;48.550;8.822;2024-01-30T07:14:32;5.47;;;3.90;;
8419;SDS011;4247;48.550;8.822;2024-01-30T07:16:59;4.37;;;3.83;;
8419;SDS011;4247;48.550;8.822;2024-01-30T07:19:25;8.20;;;3.70;;
8419;SDS011;4247;48.550;8.822;2024-01-30T07:21:52;6.50;;;4.10;;
8419;SDS011;4247;48.550;8.822;2024-01-30T07:24:19;8.50;;;3.53;;
8419;SDS011;4247;48.550;8.822;2024-01-30T07:26:45;5.10;;;3.67;;
8419;SDS011;4247;48.550;8.822;2024-01-30T07:29:12;5.60;;;4.03;;
8419;SDS011;4247;48.550;8.822;2024-01-30T07:31:40;5.77;;;3.60;;
8419;SDS011;4247;48.550;8.822;2024-01-30T07:34:07;5.87;;;4.30;;
8419;SDS011;4247;48.550;8.822;2024-01-30T07:36:34;9.30;;;4.20;;
8419;SDS011;4247;48.550;8.822;2024-01-30T07:39:00;6.90;;;3.90;;
8419;SDS011;4247;48.550;8.822;2024-01-30T07:41:27;6.70;;;3.93;;
8419;SDS011;4247;48.550;8.822;2024-01-30T07:43:54;5.87;;;3.77;;
8419;SDS011;4247;48.550;8.822;2024-01-30T07:46:21;7.33;;;4.67;;
8419;SDS011;4247;48.550;8.822;2024-01-30T07:48:49;5.57;;;3.47;;
8419;SDS011;4247;48.550;8.822;2024-01-30T07:51:15;5.17;;;3.87;;
8419;SDS011;4247;48.550;8.822;2024-01-30T07:53:42;3.93;;;3.43;;
8419;SDS011;4247;48.550;8.822;2024-01-30T07:56:09;5.10;;;3.40;;
8419;SDS011;4247;48.550;8.822;2024-01-30T07:58:36;4.10;;;3.67;;
8419;SDS011;4247;48.550;8.822;2024-01-30T08:01:03;4.50;;;3.10;;
8419;SDS011;4247;48.550;8.822;2024-01-30T08:03:30;4.03;;;2.47;;
8419;SDS011;4247;48.550;8.822;2024-01-30T08:05:58;3.60;;;2.67;;
8419;SDS011;4247;48.550;8.822;2024-01-30T08:08:25;2.57;;;2.03;;
8419;SDS011;4247;48.550;8.822;2024-01-30T08:10:52;3.23;;;2.47;;
8419;SDS011;4247;48.550;8.822;2024-01-30T08:13:18;3.37;;;2.40;;
8419;SDS011;4247;48.550;8.822;2024-01-30T08:15:45;4.47;;;2.57;;
8419;SDS011;4247;48.550;8.822;2024-01-30T08:18:12;4.57;;;2.53;;
8419;SDS011;4247;48.550;8.822;2024-01-30T08:20:38;3.70;;;2.63;;
8419;SDS011;4247;48.550;8.822;2024-01-30T08:23:06;4.40;;;2.70;;
8419;SDS011;4247;48.550;8.822;2024-01-30T08:25:33;4.83;;;2.53;;
8419;SDS011;4247;48.550;8.822;2024-01-30T08:28:01;4.73;;;2.60;;
8419;SDS011;4247;48.550;8.822;2024-01-30T08:30:29;2.80;;;1.90;;
8419;SDS011;4247;48.550;8.822;2024-01-30T08:32:55;3.20;;;2.20;;
8419;SDS011;4247;48.550;8.822;2024-01-30T08:35:22;4.53;;;2.77;;
8419;SDS011;4247;48.550;8.822;2024-01-30T08:37:49;4.30;;;2.23;;
8419;SDS011;4247;48.550;8.822;2024-01-30T08:40:17;4.37;;;1.90;;
8419;SDS011;4247;48.550;8.822;2024-01-30T08:42:43;2.60;;;2.30;;
8419;SDS011;4247;48.550;8.822;2024-01-30T08:45:10;4.37;;;1.57;;
8419;SDS011;4247;48.550;8.822;2024-01-30T08:47:37;2.80;;;2.43;;
8419;SDS011;4247;48.550;8.822;2024-01-30T08:50:04;6.03;;;2.33;;
8419;SDS011;4247;48.550;8.822;2024-01-30T08:52:31;2.33;;;1.80;;
8419;SDS011;4247;48.550;8.822;2024-01-30T08:54:59;2.73;;;1.87;;
8419;SDS011;4247;48.550;8.822;2024-01-30T08:57:27;3.67;;;2.50;;
8419;SDS011;4247;48.550;8.822;2024-01-30T08:59:54;2.10;;;1.87;;
8419;SDS011;4247;48.550;8.822;2024-01-30T09:02:21;2.70;;;2.07;;
8419;SDS011;4247;48.550;8.822;2024-01-30T09:04:47;2.77;;;2.17;;
8419;SDS011;4247;48.550;8.822;2024-01-30T09:07:14;1.87;;;1.60;;
8419;SDS011;4247;48.550;8.822;2024-01-30T09:09:41;4.63;;;2.03;;
8419;SDS011;4247;48.550;8.822;2024-01-30T09:12:08;4.07;;;1.90;;
8419;SDS011;4247;48.550;8.822;2024-01-30T09:14:38;1.80;;;1.40;;
8419;SDS011;4247;48.550;8.822;2024-01-30T09:17:05;2.13;;;1.40;;
8419;SDS011;4247;48.550;8.822;2024-01-30T09:19:32;1.50;;;1.40;;
8419;SDS011;4247;48.550;8.822;2024-01-30T09:21:59;1.87;;;1.40;;
8419;SDS011;4247;48.550;8.822;2024-01-30T09:24:25;3.53;;;1.43;;
8419;SDS011;4247;48.550;8.822;2024-01-30T09:26:52;3.10;;;1.40;;
8419;SDS011;4247;48.550;8.822;2024-01-30T09:29:19;2.30;;;1.17;;
8419;SDS011;4247;48.550;8.822;2024-01-30T09:31:48;2.20;;;1.30;;
8419;SDS011;4247;48.550;8.822;2024-01-30T09:34:15;2.57;;;1.30;;
8419;SDS011;4247;48.550;8.822;2024-01-30T09:36:41;3.17;;;1.50;;
8419;SDS011;4247;48.550;8.822;2024-01-30T09:39:08;3.43;;;1.63;;
8419;SDS011;4247;48.550;8.822;2024-01-30T09:41:36;2.20;;;1.30;;
8419;SDS011;4247;48.550;8.822;2024-01-30T09:44:11;4.47;;;1.30;;
8419;SDS011;4247;48.550;8.822;2024-01-30T09:46:38;5.40;;;1.80;;
8419;SDS011;4247;48.550;8.822;2024-01-30T09:49:07;1.70;;;1.37;;
8419;SDS011;4247;48.550;8.822;2024-01-30T09:51:35;3.23;;;0.90;;
8419;SDS011;4247;48.550;8.822;2024-01-30T09:54:02;4.30;;;1.10;;
8419;SDS011;4247;48.550;8.822;2024-01-30T09:56:29;3.43;;;1.50;;
8419;SDS011;4247;48.550;8.822;2024-01-30T09:58:55;2.67;;;0.87;;
8419;SDS011;4247;48.550;8.822;2024-01-30T10:01:22;2.37;;;1.63;;
8419;SDS011;4247;48.550;8.822;2024-01-30T10:03:50;1.50;;;1.40;;
8419;SDS011;4247;48.550;8.822;2024-01-30T10:06:19;1.97;;;1.50;;
8419;SDS011;4247;48.550;8.822;2024-01-30T10:08:47;2.13;;;1.20;;
8419;SDS011;4247;48.550;8.822;2024-01-30T10:11:14;3.00;;;1.20;;
8419;SDS011;4247;48.550;8.822;2024-01-30T10:13:40;1.70;;;1.07;;
8419;SDS011;4247;48.550;8.822;2024-01-30T10:16:07;2.60;;;1.20;;
8419;SDS011;4247;48.550;8.822;2024-01-30T10:18:34;1.30;;;1.07;;
8419;SDS011;4247;48.550;8.822;2024-01-30T10:21:01;1.43;;;1.03;;
8419;SDS011;4247;48.550;8.822;2024-01-30T10:23:29;1.73;;;1.63;;
8419;SDS011;4247;48.550;8.822;2024-01-30T10:25:56;3.27;;;1.20;;
8419;SDS011;4247;48.550;8.822;2024-01-30T10:28:23;1.67;;;1.57;;
8419;SDS011;4247;48.550;8.822;2024-01-30T10:30:57;6.00;;;1.60;;
8419;SDS011;4247;48.550;8.822;2024-01-30T10:33:25;2.53;;;1.43;;
8419;SDS011;4247;48.550;8.822;2024-01-30T10:35:52;2.20;;;1.50;;
8419;SDS011;4247;48.550;8.822;2024-01-30T10:38:20;5.10;;;1.60;;
8419;SDS011;4247;48.550;8.822;2024-01-30T10:40:52;2.03;;;1.93;;
8419;SDS011;4247;48.550;8.822;2024-01-30T10:43:22;4.60;;;1.97;;
8419;SDS011;4247;48.550;8.822;2024-01-30T10:45:50;2.27;;;1.90;;
8419;SDS011;4247;48.550;8.822;2024-01-30T10:48:22;2.53;;;2.00;;
8419;SDS011;4247;48.550;8.822;2024-01-30T10:50:54;6.70;;;3.87;;
8419;SDS011;4247;48.550;8.822;2024-01-30T10:53:23;7.10;;;2.50;;
8419;SDS011;4247;48.550;8.822;2024-01-30T10:55:50;8.40;;;3.43;;
8419;SDS011;4247;48.550;8.822;2024-01-30T10:58:20;4.07;;;1.93;;
8419;SDS011;4247;48.550;8.822;2024-01-30T11:00:48;3.80;;;2.07;;
8419;SDS011;4247;48.550;8.822;2024-01-30T11:03:16;2.70;;;1.73;;
8419;SDS011;4247;48.550;8.822;2024-01-30T11:05:48;2.63;;;2.27;;
8419;SDS011;4247;48.550;8.822;2024-01-30T11:08:22;3.13;;;1.80;;
8419;SDS011;4247;48.550;8.822;2024-01-30T11:10:54;2.80;;;1.97;;
8419;SDS011;4247;48.550;8.822;2024-01-30T11:13:26;1.97;;;1.50;;
8419;SDS011;4247;48.550;8.822;2024-01-30T11:15:53;5.87;;;2.73;;
8419;SDS011;4247;48.550;8.822;2024-01-30T11:18:23;4.47;;;3.17;;
8419;SDS011;4247;48.550;8.822;2024-01-30T11:20:51;7.00;;;2.03;;
8419;SDS011;4247;48.550;8.822;2024-01-30T11:23:18;2.57;;;2.37;;
8419;SDS011;4247;48.550;8.822;2024-01-30T11:25:48;3.13;;;1.93;;
8419;SDS011;4247;48.550;8.822;2024-01-30T11:28:16;7.07;;;2.00;;
8419;SDS011;4247;48.550;8.822;2024-01-30T11:30:43;6.00;;;1.60;;
8419;SDS011;4247;48.550;8.822;2024-01-30T11:33:12;4.03;;;2.30;;
8419;SDS011;4247;48.550;8.822;2024-01-30T11:35:40;5.33;;;1.70;;
8419;SDS011;4247;48.550;8.822;2024-01-30T11:38:08;6.30;;;1.83;;
8419;SDS011;4247;48.550;8.822;2024-01-30T11:40:36;1.40;;;1.27;;
8419;SDS011;4247;48.550;8.822;2024-01-30T11:43:05;1.67;;;1.40;;
8419;SDS011;4247;48.550;8.822;2024-01-30T11:45:34;1.90;;;1.37;;
8419;SDS011;4247;48.550;8.822;2024-01-30T11:48:02;2.57;;;0.93;;
8419;SDS011;4247;48.550;8.822;2024-01-30T11:50:30;7.30;;;1.03;;
8419;SDS011;4247;48.550;8.822;2024-01-30T11:52:57;1.33;;;0.93;;
8419;SDS011;4247;48.550;8.822;2024-01-30T11:55:24;1.27;;;1.03;;
8419;SDS011;4247;48.550;8.822;2024-01-30T11:57:54;1.60;;;1.10;;
8419;SDS011;4247;48.550;8.822;2024-01-30T12:00:21;2.23;;;0.90;;
8419;SDS011;4247;48.550;8.822;2024-01-30T12:02:52;2.73;;;0.93;;
8419;SDS011;4247;48.550;8.822;2024-01-30T12:05:22;1.53;;;1.40;;
8419;SDS011;4247;48.550;8.822;2024-01-30T12:07:48;6.47;;;2.23;;
8419;SDS011;4247;48.550;8.822;2024-01-30T12:10:15;4.63;;;1.40;;
8419;SDS011;4247;48.550;8.822;2024-01-30T12:12:43;7.27;;;2.37;;
8419;SDS011;4247;48.550;8.822;2024-01-30T12:15:11;5.27;;;1.93;;
8419;SDS011;4247;48.550;8.822;2024-01-30T12:17:39;6.83;;;2.13;;
8419;SDS011;4247;48.550;8.822;2024-01-30T12:20:08;2.03;;;1.83;;
8419;SDS011;4247;48.550;8.822;2024-01-30T12:22:36;20.87;;;9.37;;
8419;SDS011;4247;48.550;8.822;2024-01-30T12:25:04;4.53;;;2.67;;
8419;SDS011;4247;48.550;8.822;2024-01-30T12:27:31;1.57;;;1.30;;
8419;SDS011;4247;48.550;8.822;2024-01-30T12:29:58;2.43;;;1.20;;
8419;SDS011;4247;48.550;8.822;2024-01-30T12:32:25;1.43;;;1.33;;
8419;SDS011;4247;48.550;8.822;2024-01-30T12:34:54;3.73;;;1.60;;
8419;SDS011;4247;48.550;8.822;2024-01-30T12:37:23;2.50;;;1.73;;
8419;SDS011;4247;48.550;8.822;2024-01-30T12:39:51;4.17;;;1.97;;
8419;SDS011;4247;48.550;8.822;2024-01-30T12:42:19;2.97;;;1.97;;
8419;SDS011;4247;48.550;8.822;2024-01-30T12:44:46;3.40;;;1.70;;
8419;SDS011;4247;48.550;8.822;2024-01-30T12:47:13;1.60;;;1.10;;
8419;SDS011;4247;48.550;8.822;2024-01-30T12:49:41;2.00;;;0.80;;
8419;SDS011;4247;48.550;8.822;2024-01-30T12:52:08;0.63;;;0.53;;
8419;SDS011;4247;48.550;8.822;2024-01-30T12:54:36;0.70;;;0.60;;
8419;SDS011;4247;48.550;8.822;2024-01-30T12:57:03;4.63;;;2.33;;
8419;SDS011;4247;48.550;8.822;2024-01-30T12:59:30;1.77;;;0.70;;
8419;SDS011;4247;48.550;8.822;2024-01-30T13:01:58;1.23;;;0.90;;
8419;SDS011;4247;48.550;8.822;2024-01-30T13:04:26;1.17;;;0.87;;
8419;SDS011;4247;48.550;8.822;2024-01-30T13:06:53;2.43;;;0.70;;
8419;SDS011;4247;48.550;8.822;2024-01-30T13:09:20;4.10;;;0.50;;
8419;SDS011;4247;48.550;8.822;2024-01-30T13:11:48;0.50;;;0.50;;
8419;SDS011;4247;48.550;8.822;2024-01-30T13:14:16;1.17;;;0.70;;
8419;SDS011;4247;48.550;8.822;2024-01-30T13:16:42;1.60;;;0.70;;
8419;SDS011;4247;48.550;8.822;2024-01-30T13:19:09;3.70;;;0.60;;
8419;SDS011;4247;48.550;8.822;2024-01-30T13:21:36;1.00;;;0.90;;
8419;SDS011;4247;48.550;8.822;2024-01-30T13:24:03;1.20;;;0.67;;
8419;SDS011;4247;48.550;8.822;2024-01-30T13:26:31;1.43;;;0.70;;
8419;SDS011;4247;48.550;8.822;2024-01-30T13:28:59;3.30;;;0.57;;
8419;SDS011;4247;48.550;8.822;2024-01-30T13:31:26;1.50;;;0.90;;
8419;SDS011;4247;48.550;8.822;2024-01-30T13:33:53;0.93;;;0.80;;
8419;SDS011;4247;48.550;8.822;2024-01-30T13:36:20;0.60;;;0.60;;
8419;SDS011;4247;48.550;8.822;2024-01-30T13:38:47;0.97;;;0.70;;
8419;SDS011;4247;48.550;8.822;2024-01-30T13:41:14;0.67;;;0.60;;
8419;SDS011;4247;48.550;8.822;2024-01-30T13:43:41;2.67;;;0.60;;
8419;SDS011;4247;48.550;8.822;2024-01-30T13:46:10;0.70;;;0.70;;
8419;SDS011;4247;48.550;8.822;2024-01-30T13:48:37;2.00;;;0.97;;
8419;SDS011;4247;48.550;8.822;2024-01-30T13:51:04;2.23;;;0.80;;
8419;SDS011;4247;48.550;8.822;2024-01-30T13:53:31;1.00;;;0.90;;
8419;SDS011;4247;48.550;8.822;2024-01-30T13:55:57;0.80;;;0.80;;
8419;SDS011;4247;48.550;8.822;2024-01-30T13:58:24;1.80;;;0.77;;
8419;SDS011;4247;48.550;8.822;2024-01-30T14:00:52;1.90;;;0.90;;
8419;SDS011;4247;48.550;8.822;2024-01-30T14:03:20;1.07;;;0.70;;
8419;SDS011;4247;48.550;8.822;2024-01-30T14:05:46;7.67;;;1.10;;
8419;SDS011;4247;48.550;8.822;2024-01-30T14:08:13;3.13;;;0.80;;
8419;SDS011;4247;48.550;8.822;2024-01-30T14:10:41;1.37;;;0.70;;
8419;SDS011;4247;48.550;8.822;2024-01-30T14:13:07;1.10;;;0.70;;
8419;SDS011;4247;48.550;8.822;2024-01-30T14:15:34;3.13;;;0.80;;
8419;SDS011;4247;48.550;8.822;2024-01-30T14:18:01;1.53;;;0.80;;
8419;SDS011;4247;48.550;8.822;2024-01-30T14:20:28;4.30;;;0.90;;
8419;SDS011;4247;48.550;8.822;2024-01-30T14:22:56;1.07;;;0.70;;
8419;SDS011;4247;48.550;8.822;2024-01-30T14:25:24;3.37;;;0.70;;
8419;SDS011;4247;48.550;8.822;2024-01-30T14:27:50;0.70;;;0.60;;
8419;SDS011;4247;48.550;8.822;2024-01-30T14:30:17;1.60;;;0.73;;
8419;SDS011;4247;48.550;8.822;2024-01-30T14:32:44;1.97;;;0.90;;
8419;SDS011;4247;48.550;8.822;2024-01-30T14:35:11;2.30;;;0.80;;
8419;SDS011;4247;48.550;8.822;2024-01-30T14:37:39;1.73;;;1.30;;
8419;SDS011;4247;48.550;8.822;2024-01-30T14:40:07;8.10;;;1.93;;
8419;SDS011;4247;48.550;8.822;2024-01-30T14:42:34;2.67;;;0.90;;
8419;SDS011;4247;48.550;8.822;2024-01-30T14:45:01;2.23;;;1.00;;
8419;SDS011;4247;48.550;8.822;2024-01-30T14:47:27;2.50;;;1.03;;
8419;SDS011;4247;48.550;8.822;2024-01-30T14:49:55;2.27;;;1.10;;
8419;SDS011;4247;48.550;8.822;2024-01-30T14:52:22;2.23;;;0.87;;
8419;SDS011;4247;48.550;8.822;2024-01-30T14:54:50;2.20;;;1.40;;
8419;SDS011;4247;48.550;8.822;2024-01-30T14:57:17;1.03;;;0.90;;
8419;SDS011;4247;48.550;8.822;2024-01-30T14:59:44;1.70;;;1.00;;
8419;SDS011;4247;48.550;8.822;2024-01-30T15:02:11;4.57;;;1.00;;
8419;SDS011;4247;48.550;8.822;2024-01-30T15:04:39;1.80;;;1.10;;
8419;SDS011;4247;48.550;8.822;2024-01-30T15:07:06;1.17;;;0.90;;
8419;SDS011;4247;48.550;8.822;2024-01-30T15:09:33;3.63;;;1.07;;
8419;SDS011;4247;48.550;8.822;2024-01-30T15:12:01;4.67;;;1.07;;
8419;SDS011;4247;48.550;8.822;2024-01-30T15:14:28;1.20;;;1.03;;